KHBG

Hattiesburg Bobby L Chain Municipal Airport

Hattiesburg, Mississippi, USA
METAR KHBG 140353Z AUTO 01009G19KT 5SM BR OVC007 04/03 A3031 RMK AO2 RAB37E48 CIG 005V010 SLP263 P0000 T00440028
Observed Flight Rules
Nov-14 @ 03:53 UTC (55 minutes ago) Instrument Flight Rules
Wind Visibility Clouds Conditions
10° at 9 knots
 Gusting to 19 knots
5 miles
  • Overcast at 700' AGL
  • Mist
Temperatures Readings Precipitation
Current 4°C / 39°F
Dewpoint 3°C / 37°F
Humidity 93%
Altimeter 30.31" Hg
Pressure 1026.3 hPa
Elevation 44
Current Rain 0.005
METAR KHBG 140353Z AUTO 01009G19KT 5SM BR OVC007 04/03 A3031 RMK AO2 RAB37E48 CIG 005V010 SLP263 P0000 T00440028
Observed Flight Rules
Nov-14 @ 03:53 UTC
(55 minutes ago)
IFR
Wind Visibility
10° at 9 knots
 Gusting to 19 knots
5 miles
Clouds
  • Overcast at 700' AGL
Conditions
  • Mist
Temperature Dewpoint
4°C / 39°F 3°C / 37°F
Humidity Altimeter Pressure
93% 30.31" Hg 1026.3 hPa
Current Rain
0.005